Hébergeur de fichiers indépendant

A 20130505 084920.gpx

À propos

Type de fichier
Fichier GPX de 1.5 Mo (application/xml)
Confidentialité
Fichier public, envoyé le 5 mai 2013 à 22:38, depuis l'adresse IP 109.89.x.x (Belgique)
Sécurité
Ne contient aucun Virus ou Malware connus - Dernière vérification: 02/06/19
Statistiques
La présente page de téléchargement a été vue 504 fois depuis l'envoi du fichier
Page de téléchargement

Aperçu du fichier


<?xml version="1.0" encoding="UTF-8" standalone="no"?>
<gpx xmlns="http://www.topografix.com/GPX/1/1" creator="Elektrobit Street Director (R)" version="1.1" xmlns:xsi="http://www.w3.org/2001/XMLSchema-instance" xsi:schemaLocation="http://www.topografix.com/GPX/1/1 http://www.topografix.com/GPX/1/1/gpx.xsd http://www.gpstrailmaps.com/map3d/map3d http://www.gpstrailmaps.com/map3d/map3d.xsd http://www.topografix.com/GPX/gpx_style/0/2 http://www.topografix.com/GPX/gpx_style/0/2/gpx_style.xsd">
<metadata>
<name>                                                                                                                               </name>
<desc>                                                                                                                               </desc>
<author>
<name>                                                                                                                               </name>
<email domain="                               " id="                               "/>
<link href="                                                                                                                               ">
<text>                                                                                                                               </text>
<type>text/html</type>
</link>
</author>
<copyright author="                                                                                                                               ">
<year>                               </year>
<license>                                                                                                                               </license>
</copyright>
<time>                               </time>
<bounds minlat="49.781137                      " minlon=" 4.877013                      " maxlat="50.586856                      " maxlon=" 5.593826                      "/>
</metadata>
<wpt lat="50.559008                      " lon=" 5.305596                      ">
<name>                               </name>
<cmt>                               </cmt>
<desc>                                                                                                                               </desc>
<sym>                               </sym>
</wpt>
<trk>
<name>                               </name>
<cmt>                               </cmt>
<desc>                                                                                                                               </desc>
<number>                               </number>
<trkseg>
<trkpt lat="50.559008" lon="5.305596">
<ele>195.600000</ele>
<time>2013-05-05T06:49:21Z</time>
</trkpt>
<trkpt lat="50.559095" lon="5.305620">
<ele>195.600000</ele>
<time>2013-05-05T06:49:22Z</time>
</trkpt>
<trkpt lat="50.559197" lon="5.305682">
<ele>195.600000</ele>
<time>2013-05-05T06:49:24Z</time>
</trkpt>
<trkpt lat="50.559241" lon="5.305836">
<ele>182.300000</ele>
<time>2013-05-05T06:49:26Z</time>
</trkpt>
<trkpt lat="50.559281" lon="5.305910">
<ele>181.600000</ele>
<time>2013-05-05T06:49:27Z</time>
</trkpt>
<trkpt lat="50.559337" lon="5.305949">
<ele>182.100000</ele>
<time>2013-05-05T06:49:28Z</time>
</trkpt>
<trkpt lat="50.559446" lon="5.305938">
<ele>183.400000</ele>
<time>2013-05-05T06:49:30Z</time>
</trkpt>
<trkpt lat="50.559493" lon="5.305883">
<ele>183.200000</ele>
<time>2013-05-05T06:49:31Z</time>
</trkpt>
<trkpt lat="50.559532" lon="5.305688">
<ele>182.600000</ele>
<time>2013-05-05T06:49:33Z</time>
</trkpt>
<trkpt lat="50.559546" lon="5.305564">
<ele>182.100000</ele>
<time>2013-05-05T06:49:34Z</time>
</trkpt>
<trkpt lat="50.559593" lon="5.305460">
<ele>181.500000</ele>
<time>2013-05-05T06:49:35Z</time>
</trkpt>
<trkpt lat="50.559666" lon="5.305388">
<ele>180.800000</ele>
<time>2013-05-05T06:49:36Z</time>
</trkpt>
<trkpt lat="50.559758" lon="5.305342">
<ele>180.400000</ele>
<time>2013-05-05T06:49:37Z</time>
</trkpt>
<trkpt lat="50.559860" lon="5.305318">
<ele>180.000000</ele>
<time>2013-05-05T06:49:38Z</time>
</trkpt>
<trkpt lat="50.559956" lon="5.305301">
<ele>177.200000</ele>
<time>2013-05-05T06:49:39Z</time>
</trkpt>
<trkpt lat="50.560071" lon="5.305269">
<ele>177.000000</ele>
<time>2013-05-05T06:49:40Z</time>
</trkpt>
<trkpt lat="50.560195" lon="5.305235">
<ele>176.600000</ele>
<time>2013-05-05T06:49:41Z</time>
</trkpt>
<trkpt lat="50.560316" lon="5.305201">
<ele>176.000000</ele>
<time>2013-05-05T06:49:42Z</time>
</trkpt>
<trkpt lat="50.560455" lon="5.305179">
<ele>176.300000</ele>
<time>2013-05-05T06:49:43Z</time>
</trkpt>
<trkpt lat="50.560587" lon="5.305157">
<ele>176.700000</ele>
<time>2013-05-05T06:49:44Z</time>
</trkpt>
<trkpt lat="50.560731" lon="5.305130">
<ele>176.700000</ele>
<time>2013-05-05T06:49:45Z</time>
</trkpt>
<trkpt lat="50.560866" lon="5.305105">
<ele>176.500000</ele>
<time>2013-05-05T06:49:46Z</time>
</trkpt>
<trkpt lat="50.561014" lon="5.305077">
<ele>176.400000</ele>
<time>2013-05-05T06:49:47Z</time>
</trkpt>
<trkpt lat="50.561159" lon="5.305048">
<ele>176.300000</ele>
<time>2013-05-05T06:49:48Z</time>
</trkpt>
<trkpt lat="50.561305" lon="5.305020">
<ele>176.300000</ele>
<time>2013-05-05T06:49:49Z</time>
</trkpt>
<trkpt lat="50.561451" lon="5.304992">
<ele>176.200000</ele>
<time>2013-05-05T06:49:50Z</time>
</trkpt>
<trkpt lat="50.561598" lon="5.304963">
<ele>176.200000</ele>
<time>2013-05-05T06:49:51Z</time>
</trkpt>
<trkpt lat="50.561748" lon="5.304930">
<ele>176.200000</ele>
<time>2013-05-05T06:49:52Z</time>
</trkpt>
<trkpt lat="50.561910" lon="5.304896">
<ele>176.200000</ele>
<time>2013-05-05T06:49:53Z</time>
</trkpt>
<trkpt lat="50.562079" lon="5.304859">
<ele>176.100000</ele>
<time>2013-05-05T06:49:54Z</time>
</trkpt>
<trkpt lat="50.562252" lon="5.304814">
<ele>175.900000</ele>
<time>2013-05-05T06:49:55Z</time>
</trkpt>
<trkpt lat="50.562555" lon="5.304702">
<ele>199.700000</ele>
<time>2013-05-05T06:49:56Z</time>
</trkpt>
<trkpt lat="50.562732" lon="5.304648">
<ele>200.400000</ele>
<time>2013-05-05T06:49:57Z</time>
</trkpt>
<trkpt lat="50.562896" lon="5.304609">
<ele>200.700000</ele>
<time>2013-05-05T06:49:58Z</time>
</trkpt>
<trkpt lat="50.563066" lon="5.304580">
<ele>200.900000</ele>
<time>2013-05-05T06:49:59Z</time>
</trkpt>
<trkpt lat="50.563251" lon="5.304555">
<ele>200.900000</ele>
<time>2013-05-05T06:50:00Z</time>
</trkpt>
<trkpt lat="50.563431" lon="5.304535">
<ele>200.900000</ele>
<time>2013-05-05T06:50:01Z</time>
</trkpt>
<trkpt lat="50.563613" lon="5.304514">
<ele>200.600000</ele>
<time>2013-05-05T06:50:02Z</time>
</trkpt>
<trkpt lat="50.563798" lon="5.304490">
<ele>200.100000</ele>
<time>2013-05-05T06:50:03Z</time>
</trkpt>
<trkpt lat="50.563979" lon="5.304460">
<ele>199.400000</ele>
<time>2013-05-05T06:50:04Z</time>
</trkpt>
<trkpt lat="50.564156" lon="5.304417">
<ele>198.700000</ele>
<time>2013-05-05T06:50:05Z</time>
</trkpt>
<trkpt lat="50.564332" lon="5.304362">
<ele>198.000000</ele>
<time>2013-05-05T06:50:06Z</time>
</trkpt>
<trkpt lat="50.564505" lon="5.304305">
<ele>197.300000</ele>
<time>2013-05-05T06:50:07Z</time>
</trkpt>
<trkpt lat="50.564680" lon="5.304249">
<ele>196.700000</ele>
<time>2013-05-05T06:50:08Z</time>
</trkpt>
<trkpt lat="50.564853" lon="5.304191">
<ele>196.000000</ele>
<time>2013-05-05T06:50:09Z</time>
</trkpt>
<trkpt lat="50.565026" lon="5.304132">
<ele>195.500000</ele>
<time>2013-05-05T06:50:10Z</time>
</trkpt>
<trkpt lat="50.565185" lon="5.304077">
<ele>195.000000</ele>
<time>2013-05-05T06:50:11Z</time>
</trkpt>
<trkpt lat="50.565351" lon="5.304023">
<ele>194.500000</ele>
<time>2013-05-05T06:50:12Z</time>
</trkpt>
<trkpt lat="50.565505" lon="5.303971">
<ele>194.100000</ele>
<time>2013-05-05T06:50:13Z</time>
</trkpt>
<trkpt lat="50.565665" lon="5.303919">
<ele>193.800000</ele>
<time>2013-05-05T06:50:14Z</time>
</trkpt>
<trkpt lat="50.565813" lon="5.303869">
<ele>193.700000</ele>
<time>2013-05-05T06:50:15Z</time>
</trkpt>
<trkpt lat="50.565966" lon="5.303816">
<ele>193.500000</ele>
<time>2013-05-05T06:50:16Z</time>
</trkpt>
<trkpt lat="50.566104" lon="5.303768">
<ele>193.500000</ele>
<time>2013-05-05T06:50:17Z</time>
</trkpt>
<trkpt lat="50.566220" lon="5.303725">
<ele>193.700000</ele>
<time>2013-05-05T06:50:18Z</time>
</trkpt>
<trkpt lat="50.566318" lon="5.303697">
<ele>193.900000</ele>
<time>2013-05-05T06:50:19Z</time>
</trkpt>
<trkpt lat="50.566388" lon="5.303707">
<ele>194.000000</ele>
<time>2013-05-05T06:50:20Z</time>
</trkpt>
<trkpt lat="50.566459" lon="5.303734">
<ele>194.200000</ele>
<time>2013-05-05T06:50:21Z</time>
</trkpt>
<trkpt lat="50.566534" lon="5.303755">
<ele>194.200000</ele>
<time>2013-05-05T06:50:22Z</time>
</trkpt>
<trkpt lat="50.566604" lon="5.303731">
<ele>194.000000</ele>
<time>2013-05-05T06:50:23Z</time>
</trkpt>
<trkpt lat="50.566659" lon="5.303664">
<ele>193.800000</ele>
<time>2013-05-05T06:50:24Z</time>
</trkpt>
<trkpt lat="50.566725" lon="5.303573">
<ele>193.400000</ele>
<time>2013-05-05T06:50:25Z</time>
</trkpt>
<trkpt lat="50.566823" lon="5.303483">
<ele>193.000000</ele>
<time>2013-05-05T06:50:26Z</time>
</trkpt>
<trkpt lat="50.566934" lon="5.303413">
<ele>192.500000</ele>
<time>2013-05-05T06:50:27Z</time>
</trkpt>
<trkpt lat="50.567066" lon="5.303338">
<ele>191.700000</ele>
<time>2013-05-05T06:50:28Z</time>
</trkpt>
<trkpt lat="50.567208" lon="5.303257">
<ele>190.900000</ele>
<time>2013-05-05T06:50:29Z</time>
</trkpt>
<trkpt lat="50.567342" lon="5.303180">
<ele>190.000000</ele>
<time>2013-05-05T06:50:30Z</time>
</trkpt>
<trkpt lat="50.567492" lon="5.303095">
<ele>189.100000</ele>
<time>2013-05-05T06:50:31Z</time>
</trkpt>
<trkpt lat="50.567660" lon="5.303000">
<ele>187.900000</ele>
<time>2013-05-05T06:50:32Z</time>
</trkpt>
<trkpt lat="50.567832" lon="5.302900">
<ele>186.800000</ele>
<time>2013-05-05T06:50:33Z</time>
</trkpt>
<trkpt lat="50.568000" lon="5.302800">
<ele>185.700000</ele>
<time>2013-05-05T06:50:34Z</time>
</trkpt>
<trkpt lat="50.568171" lon="5.302696">
<ele>184.600000</ele>
<time>2013-05-05T06:50:35Z</time>
</trkpt>
<trkpt lat="50.568355" lon="5.302587">
<ele>183.500000</ele>
<time>2013-05-05T06:50:36Z</time>
</trkpt>
<trkpt lat="50.568532" lon="5.302481">
<ele>182.300000</ele>
<time>2013-05-05T06:50:37Z</time>
</trkpt>
<trkpt lat="50.568710" lon="5.302375">
<ele>181.100000</ele>
<time>2013-05-05T06:50:38Z</time>
</trkpt>
<trkpt lat="50.568890" lon="5.302271">
<ele>179.800000</ele>
<time>2013-05-05T06:50:39Z</time>
</trkpt>
<trkpt lat="50.569068" lon="5.302165">
<ele>178.600000</ele>
<time>2013-05-05T06:50:40Z</time>
</trkpt>
<trkpt lat="50.569244" lon="5.302053">
<ele>177.400000</ele>
<time>2013-05-05T06:50:41Z</time>
</trkpt>
<trkpt lat="50.569419" lon="5.301943">
<ele>176.100000</ele>
<time>2013-05-05T06:50:42Z</time>
</trkpt>
<trkpt lat="50.569591" lon="5.301855">
<ele>174.800000</ele>
<time>2013-05-05T06:50:43Z</time>
</trkpt>
<trkpt lat="50.569780" lon="5.301776">
<ele>173.300000</ele>
<time>2013-05-05T06:50:44Z</time>
</trkpt>
<trkpt lat="50.569964" lon="5.301699">
<ele>171.800000</ele>
<time>2013-05-05T06:50:45Z</time>
</trkpt>
<trkpt lat="50.570149" lon="5.301621">
<ele>170.300000</ele>
<time>2013-05-05T06:50:46Z</time>
</trkpt>
<trkpt lat="50.570336" lon="5.301540">
<ele>168.900000</ele>
<time>2013-05-05T06:50:47Z</time>
</trkpt>
<trkpt lat="50.570522" lon="5.301458">
<ele>167.200000</ele>
<time>2013-05-05T06:50:48Z</time>
</trkpt>
<trkpt lat="50.570717" lon="5.301373">
<ele>165.600000</ele>
<time>2013-05-05T06:50:49Z</time>
</trkpt>
<trkpt lat="50.570905" lon="5.301289">
<ele>163.900000</ele>
<time>2013-05-05T06:50:50Z</time>
</trkpt>
<trkpt lat="50.571081" lon="5.301207">
<ele>162.300000</ele>
<time>2013-05-05T06:50:51Z</time>
</trkpt>
<trkpt lat="50.571258" lon="5.301137">
<ele>160.800000</ele>
<time>2013-05-05T06:50:52Z</time>
</trkpt>
<trkpt lat="50.571442" lon="5.301089">
<ele>159.200000</ele>
<time>2013-05-05T06:50:53Z</time>
</trkpt>
<trkpt lat="50.571629" lon="5.301064">
<ele>157.600000</ele>
<time>2013-05-05T06:50:54Z</time>
</trkpt>
<trkpt lat="50.571816" lon="5.301047">
<ele>156.100000</ele>
<time>2013-05-05T06:50:55Z</time>
</trkpt>
<trkpt lat="50.572014" lon="5.301044">
<ele>154.500000</ele>
<time>2013-05-05T06:50:56Z</time>
</trkpt>
<trkpt lat="50.572202" lon="5.301066">
<ele>152.900000</ele>
<time>2013-05-05T06:50:57Z</time>
</trkpt>
<trkpt lat="50.572387" lon="5.301115">
<ele>151.200000</ele>
<time>2013-05-05T06:50:58Z</time>
</trkpt>
<trkpt lat="50.572556" lon="5.301192">
<ele>149.600000</ele>
<time>2013-05-05T06:50:59Z</time>
</trkpt>
<trkpt lat="50.572722" lon="5.301287">
<ele>148.100000</ele>
<time>2013-05-05T06:51:00Z</time>
</trkpt>
<trkpt lat="50.572866" lon="5.301372">
<ele>146.500000</ele>
<time>2013-05-05T06:51:01Z</time>
</trkpt>
<trkpt lat="50.573008" lon="5.301455">
<ele>145.100000</ele>
<time>2013-05-05T06:51:02Z</time>
</trkpt>
<trkpt lat="50.573128" lon="5.301522">
<ele>143.900000</ele>
<time>2013-05-05T06:51:03Z</time>
</trkpt>
<trkpt lat="50.573221" lon="5.301554">
<ele>142.900000</ele>
<time>2013-05-05T06:51:04Z</time>
</trkpt>
<trkpt lat="50.573317" lon="5.301533">
<ele>142.300000</ele>
<time>2013-05-05T06:51:05Z</time>
</trkpt>
<trkpt lat="50.573399" lon="5.301459">
<ele>141.700000</ele>
<time>2013-05-05T06:51:06Z</time>
</trkpt>
<trkpt lat="50.573451" lon="5.301335">
<ele>140.900000</ele>
<time>2013-05-05T06:51:07Z</time>
</trkpt>
<trkpt lat="50.573469" lon="5.301184">
<ele>140.000000</ele>
<time>2013-05-05T06:51:08Z</time>
</trkpt>
<trkpt lat="50.573471" lon="5.301038">
<ele>139.700000</ele>
<time>2013-05-05T06:51:09Z</time>
</trkpt>
<trkpt lat="50.573438" lon="5.300847">
<ele>139.000000</ele>
<time>2013-05-05T06:51:10Z</time>
</trkpt>
<trkpt lat="50.573325" lon="5.300648">
<ele>137.500000</ele>
<time>2013-05-05T06:51:11Z</time>
</trkpt>
<trkpt lat="50.573210" lon="5.300443">
<ele>136.300000</ele>
<time>2013-05-05T06:51:12Z</time>
</trkpt>
<trkpt lat="50.573095" lon="5.300232">
<ele>135.500000</ele>
<time>2013-05-05T06:51:13Z</time>
</trkpt>
<trkpt lat="50.572988" lon="5.300019">
<ele>135.100000</ele>
<time>2013-05-05T06:51:14Z</time>
</trkpt>
<trkpt lat="50.572882" lon="5.299794">
<ele>134.400000</ele>
<time>2013-05-05T06:51:15Z</time>
</trkpt>
<trkpt lat="50.572770" lon="5.299567">
<ele>134.000000</ele>
<time>2013-05-05T06:51:16Z</time>
</trkpt>
<trkpt lat="50.572657" lon="5.299372">
<ele>133.400000</ele>
<time>2013-05-05T06:51:17Z</time>
</trkpt>
<trkpt lat="50.572510" lon="5.299191">
<ele>133.000000</ele>
<time>2013-05-05T06:51:18Z</time>
</trkpt>
<trkpt lat="50.572360" lon="5.299030">
<ele>133.200000</ele>
<time>2013-05-05T06:51:19Z</time>
</trkpt>
<trkpt lat="50.572203" lon="5.298864">
<ele>132.800000</ele>
<time>2013-05-05T06:51:20Z</time>
</trkpt>
<trkpt lat="50.572051" lon="5.298693">
<ele>133.200000</ele>
<time>2013-05-05T06:51:21Z</time>
</trkpt>
<trkpt lat="50.571905" lon="5.298523">
<ele>132.900000</ele>
<time>2013-05-05T06:51:22Z</time>
</trkpt>
<trkpt lat="50.571764" lon="5.298352">
<ele>132.800000</ele>
<time>2013-05-05T06:51:23Z</time>
</trkpt>
<trkpt lat="50.571619" lon="5.298184">
<ele>132.700000</ele>
<time>2013-05-05T06:51:24Z</time>
</trkpt>
<trkpt lat="50.571472" lon="5.298018">
<ele>132.100000</ele>
<time>2013-05-05T06:51:25Z</time>
</trkpt>
<trkpt lat="50.571325" lon="5.297854">
<ele>132.000000</ele>
<time>2013-05-05T06:51:26Z</time>
</trkpt>
<trkpt lat="50.571194" lon="5.297689">
<ele>132.400000</ele>
<time>2013-05-05T06:51:27Z</time>
</trkpt>
<trkpt lat="50.571057" lon="5.297531">
<ele>132.300000</ele>
<time>2013-05-05T06:51:28Z</time>
</trkpt>
<trkpt lat="50.570931" lon="5.297382">
<ele>132.300000</ele>
<time>2013-05-05T06:51:29Z</time>
</trkpt>
<trkpt lat="50.570802" lon="5.297228">
<ele>133.300000</ele>
<time>2013-05-05T06:51:30Z</time>
</trkpt>
<trkpt lat="50.570680" lon="5.297085">
<ele>133.700000</ele>
<time>2013-05-05T06:51:31Z</time>
</trkpt>
<trkpt lat="50.570562" lon="5.296933">
<ele>134.700000</ele>
<time>2013-05-05T06:51:32Z</time>
</trkpt>
<trkpt lat="50.570456" lon="5.296785">
<ele>135.300000</ele>
<time>2013-05-05T06:51:33Z</time>
</trkpt>
<trkpt lat="50.570344" lon="5.296626">
<ele>134.900000</ele>
<time>2013-05-05T06:51:34Z</time>
</trkpt>
<trkpt lat="50.570247" lon="5.296453">
<ele>134.900000</ele>
<time>2013-05-05T06:51:35Z</time>
</trkpt>
<trkpt lat="50.570158" lon="5.296273">
<ele>134.400000</ele>
<time>2013-05-05T06:51:36Z</time>
</trkpt>
<trkpt lat="50.570087" lon="5.296083">
<ele>134.000000</ele>
<time>2013-05-05T06:51:37Z</time>
</trkpt>
<trkpt lat="50.570023" lon="5.295890">
<ele>135.500000</ele>
<time>2013-05-05T06:51:38Z</time>
</trkpt>
<trkpt lat="50.569962" lon="5.295707">
<ele>135.300000</ele>
<time>2013-05-05T06:51:39Z</time>
</trkpt>
<trkpt lat="50.569890" lon="5.295525">
<ele>134.400000</ele>
<time>2013-05-05T06:51:40Z</time>
</trkpt>
<trkpt lat="50.569823" lon="5.295344">
<ele>133.900000</ele>
<time>2013-05-05T06:51:41Z</time>
</trkpt>
<trkpt lat="50.569762" lon="5.295165">
<ele>133.200000</ele>
<time>2013-05-05T06:51:42Z</time>
</trkpt>
<trkpt lat="50.569695" lon="5.294995">
<ele>133.200000</ele>
<time>2013-05-05T06:51:43Z</time>
</trkpt>
<trkpt lat="50.569624" lon="5.294822">
<ele>132.900000</ele>
<time>2013-05-05T06:51:44Z</time>
</trkpt>
<trkpt lat="50.569559" lon="5.294663">
<ele>132.600000</ele>
<time>2013-05-05T06:51:45Z</time>
</trkpt>
<trkpt lat="50.569494" lon="5.294500">
<ele>132.400000</ele>
<time>2013-05-05T06:51:46Z</time>
</trkpt>
<trkpt lat="50.569436" lon="5.294355">
<ele>131.700000</ele>
<time>2013-05-05T06:51:47Z</time>
</trkpt>
<trkpt lat="50.569369" lon="5.294207">
<ele>131.800000</ele>
<time>2013-05-05T06:51:48Z</time>
</trkpt>
<trkpt lat="50.569318" lon="5.294076">
<ele>131.800000</ele>
<time>2013-05-05T06:51:49Z</time>
</trkpt>
<trkpt lat="50.569283" lon="5.293949">
<ele>131.300000</ele>
<time>2013-05-05T06:51:50Z</time>
</trkpt>
<trkpt lat="50.569271" lon="5.293822">
<ele>130.700000</ele>
<time>2013-05-05T06:51:51Z</time>
</trkpt>
<trkpt lat="50.569275" lon="5.293714">
<ele>130.200000</ele>
<time>2013-05-05T06:51:52Z</time>
</trkpt>
<trkpt lat="50.569327" lon="5.293593">
<ele>129.900000</ele>
<time>2013-05-05T06:51:54Z</time>
</trkpt>
<trkpt lat="50.569373" lon="5.293534">
<ele>129.600000</ele>
<time>2013-05-05T06:51:55Z</time>
</trkpt>
<trkpt lat="50.569435" lon="5.293480">
<ele>129.900000</ele>
<time>2013-05-05T06:51:56Z</time>
</trkpt>
<trkpt lat="50.569482" lon="5.293420">
<ele>129.700000</ele>
<time>2013-05-05T06:51:57Z</time>
</trkpt>
<trkpt lat="50.569511" lon="5.293337">
<ele>130.200000</ele>
<time>2013-05-05T06:51:58Z</time>
</trkpt>
<trkpt lat="50.569503" lon="5.293239">
<ele>130.100000</ele>
<time>2013-05-05T06:51:59Z</time>
</trkpt>
<trkpt lat="50.569491" lon="5.293149">
<ele>130.700000</ele>
<time>2013-05-05T06:52:00Z</time>
</trkpt>
<trkpt lat="50.569414" lon="5.293104">
<ele>130.900000</ele>
<time>2013-05-05T06:52:01Z</time>
</trkpt>
<trkpt lat="50.569320" lon="5.293121">
<ele>131.000000</ele>
<time>2013-05-05T06:52:02Z</time>
</trkpt>
<trkpt lat="50.569220" lon="5.293114">
<ele>131.100000</ele>
<time>2013-05-05T06:52:03Z</time>
</trkpt>
<trkpt lat="50.569125" lon="5.293064">
<ele>130.800000</ele>
<time>2013-05-05T06:52:04Z</time>
</trkpt>
<trkpt lat="50.569037" lon="5.292977">
<ele>131.000000</ele>
<time>2013-05-05T06:52:05Z</time>
</trkpt>
<trkpt lat="50.568943" lon="5.292862">
<ele>130.900000</ele>
<time>2013-05-05T06:52:06Z</time>
</trkpt>
<trkpt lat="50.568837" lon="5.292724">
<ele>130.900000</ele>
<time>2013-05-05T06:52:07Z</time>
</trkpt>
<trkpt lat="50.568724" lon="5.292565">
<ele>131.000000</ele>
<time>2013-05-05T06:52:08Z</time>
</trkpt>
<trkpt lat="50.568618" lon="5.292402">
<ele>130.800000</ele>
<time>2013-05-05T06:52:09Z</time>
</trkpt>
<trkpt lat="50.568517" lon="5.292223">
<ele>130.600000</ele>
<time>2013-05-05T06:52:10Z</time>
</trkpt>
<trkpt lat="50.568400" lon="5.292017">
<ele>130.200000</ele>
<time>2013-05-05T06:52:11Z</time>
</trkpt>
<trkpt lat="50.568287" lon="5.291806">
<ele>130.100000</ele>
<time>2013-05-05T06:52:12Z</time>
</trkpt>
<trkpt lat="50.568166" lon="5.291587">
<ele>129.700000</ele>
<time>2013-05-05T06:52:13Z</time>
</trkpt>
<trkpt lat="50.568049" lon="5.291369">
<ele>129.200000</ele>
<time>2013-05-05T06:52:14Z</time>
</trkpt>
<trkpt lat="50.567934" lon="5.291145">
<ele>129.100000</ele>
<time>2013-05-05T06:52:15Z</time>
</trkpt>
<trkpt lat="50.567812" lon="5.290921">
<ele>129.100000</ele>
<time>2013-05-05T06:52:16Z</time>
</trkpt>
<trkpt lat="50.567684" lon="5.290680">
<ele>128.600000</ele>
<time>2013-05-05T06:52:17Z</time>
</trkpt>
<trkpt lat="50.567553" lon="5.290433">
<ele>128.500000</ele>
<time>2013-05-05T06:52:18Z</time>
</trkpt>
<trkpt lat="50.567418" lon="5.290180">
<ele>128.500000</ele>
<time>2013-05-05T06:52:19Z</time>
</trkpt>
<trkpt lat="50.567287" lon="5.289929">
<ele>128.400000</ele>
<time>2013-05-05T06:52:20Z</time>
</trkpt>
<trkpt lat="50.567144" lon="5.289667">
<ele>128.300000</ele>
<time>2013-05-05T06:52:21Z</time>
</trkpt>
<trkpt lat="50.567002" lon="5.289410">
<ele>128.200000</ele>
<time>2013-05-05T06:52:22Z</time>
</trkpt>
<trkpt lat="50.566853" lon="5.289151">
<ele>128.000000</ele>
<time>2013-05-05T06:52:23Z</time>
</trkpt>
<trkpt lat="50.566693" lon="5.288882">
<ele>127.800000</ele>
<time>2013-05-05T06:52:24Z</time>
</trkpt>
<trkpt lat="50.566526" lon="5.288613">
<ele>127.400000</ele>
<time>2013-05-05T06:52:25Z</time>
</trkpt>
<trkpt lat="50.566360" lon="5.288351">
<ele>127.100000</ele>
<time>2013-05-05T06:52:26Z</time>
</trkpt>
<trkpt lat="50.566175" lon="5.288090">
<ele>126.900000</ele>
<time>2013-05-05T06:52:27Z</time>
</trkpt>
<trkpt lat="50.565983" lon="5.287850">
<ele>126.500000</ele>
<time>2013-05-05T06:52:28Z</time>
</trkpt>
<trkpt lat="50.565775" lon="5.287618">
<ele>126.200000</ele>
<time>2013-05-05T06:52:29Z</time>
</trkpt>
<trkpt lat="50.565565" lon="5.287398">
<ele>125.900000</ele>
<time>2013-05-05T06:52:30Z</time>
</trkpt>
<trkpt lat="50.565343" lon="5.287199">
<ele>125.400000</ele>
<time>2013-05-05T06:52:31Z</time>
</trkpt>
<trkpt lat="50.565103" lon="5.287010">
<ele>125.200000</ele>
<time>2013-05-05T06:52:32Z</time>
</trkpt>
<trkpt lat="50.564863" lon="5.286837">
<ele>125.100000</ele>
<time>2013-05-05T06:52:33Z</time>
</trkpt>
<trkpt lat="50.564605" lon="5.286672">
<ele>125.300000</ele>
<time>2013-05-05T06:52:34Z</time>
</trkpt>
<trkpt lat="50.564340" lon="5.286527">
<ele>125.200000</ele>
<time>2013-05-05T06:52:35Z</time>
</trkpt>
<trkpt lat="50.564075" lon="5.286409">
<ele>125.300000</ele>
<time>2013-05-05T06:52:36Z</time>
</trkpt>
<trkpt lat="50.563809" lon="5.286300">
<ele>124.900000</ele>
<time>2013-05-05T06:52:37Z</time>
</trkpt>
<trkpt lat="50.563554" lon="5.286199">
<ele>124.600000</ele>
<time>2013-05-05T06:52:38Z</time>
</trkpt>
<trkpt lat="50.563295" lon="5.286097">
<ele>124.300000</ele>
<time>2013-05-05T06:52:39Z</time>
</trkpt>
<trkpt lat="50.563050" lon="5.285991">
<ele>124.100000</ele>
<time>2013-05-05T06:52:40Z</time>
</trkpt>
<trkpt lat="50.562801" lon="5.285870">
<ele>123.600000</ele>
<time>2013-05-05T06:52:41Z</time>
</trkpt>
<trkpt lat="50.562553" lon="5.285730">
<ele>123.400000</ele>
<time>2013-05-05T06:52:42Z</time>
</trkpt>
<trkpt lat="50.562319" lon="5.285553">
<ele>122.900000</ele>
<time>2013-05-05T06:52:43Z</time>
</trkpt>
<trkpt lat="50.562084" lon="5.285346">
<ele>122.500000</ele>
<time>2013-05-05T06:52:44Z</time>
</trkpt>
<trkpt lat="50.561868" lon="5.285109">
<ele>122.200000</ele>
<time>2013-05-05T06:52:45Z</time>
</trkpt>
<trkpt lat="50.561667" lon="5.284844">
<ele>121.900000</ele>
<time>2013-05-05T06:52:46Z</time>
</trkpt>
<trkpt lat="50.561474" lon="5.284555">
<ele>121.500000</ele>
<time>2013-05-05T06:52:47Z</time>
</trkpt>
<trkpt lat="50.561292" lon="5.284253">
<ele>121.000000</ele>
<time>2013-05-05T06:52:48Z</time>
</trkpt>
<trkpt lat="50.561118" lon="5.283958">
<ele>120.300000</ele>
<time>2013-05-05T06:52:49Z</time>
</trkpt>
<trkpt lat="50.560935" lon="5.283666">
<ele>119.900000</ele>
<time>2013-05-05T06:52:50Z</time>
</trkpt>
<trkpt lat="50.560755" lon="5.283394">
<ele>119.100000</ele>
<time>2013-05-05T06:52:51Z</time>
</trkpt>
<trkpt lat="50.560581" lon="5.283111">
<ele>118.500000</ele>
<time>2013-05-05T06:52:52Z</time>
</trkpt>
<trkpt lat="50.560423" lon="5.282840">
<ele>118.100000</ele>
<time>2013-05-05T06:52:53Z</time>
</trkpt>
<trkpt lat="50.560278" lon="5.282591">
<ele>117.900000</ele>
<time>2013-05-05T06:52:54Z</time>
</trkpt>
<trkpt lat="50.560148" lon="5.282366">
<ele>117.800000</ele>
<time>2013-05-05T06:52:55Z</time>
</trkpt>
<trkpt lat="50.560037" lon="5.282154">
<ele>117.600000</ele>
<time>2013-05-05T06:52:56Z</time>
</trkpt>
<trkpt lat="50.559916" lon="5.281948">
<ele>117.600000</ele>
<time>2013-05-05T06:52:57Z</time>
</trkpt>
<trkpt lat="50.559784" lon="5.281746">
<ele>117.500000</ele>
<time>2013-05-05T06:52:58Z</time>
</trkpt>
<trkpt lat="50.559651" lon="5.281560">
<ele>117.300000</ele>
<time>2013-05-05T06:52:59Z</time>
</trkpt>
<trkpt lat="50.559504" lon="5.281394">
<ele>117.400000</ele>
<time>2013-05-05T06:53:00Z</time>
</trkpt>
<trkpt lat="50.559352" lon="5.281242">
<ele>117.400000</ele>
<time>2013-05-05T06:53:01Z</time>
</trkpt>
<trkpt lat="50.559199" lon="5.281105">
<ele>117.000000</ele>
<time>2013-05-05T06:53:02Z</time>
</trkpt>
<trkpt lat="50.559054" lon="5.280988">
<ele>116.500000</ele>
<time>2013-05-05T06:53:03Z</time>
</trkpt>
<trkpt lat="50.558895" lon="5.280889">
<ele>116.200000</ele>
<time>2013-05-05T06:53:04Z</time>
</trkpt>
<trkpt lat="50.558725" lon="5.280805">
<ele>115.900000</ele>
<time>2013-05-05T06:53:05Z</time>
</trkpt>
<trkpt lat="50.558558" lon="5.280739">
<ele>115.600000</ele>
<time>2013-05-05T06:53:06Z</time>
</trkpt>
<trkpt lat="50.558391" lon="5.280686">
<ele>115.400000</ele>
<time>2013-05-05T06:53:07Z</time>
</trkpt>
<trkpt lat="50.558220" lon="5.280651">
<ele>115.100000</ele>
<time>2013-05-05T06:53:08Z</time>
</trkpt>
<trkpt lat="50.558058" lon="5.280633">
<ele>114.800000</ele>
<time>2013-05-05T06:53:09Z</time>
</trkpt>
<trkpt lat="50.557889" lon="5.280631">
<ele>114.500000</ele>
<time>2013-05-05T06:53:10Z</time>
</trkpt>
<trkpt lat="50.557719" lon="5.280641">
<ele>114.000000</ele>
<time>2013-05-05T06:53:11Z</time>
</trkpt>
<trkpt lat="50.557551" lon="5.280660">
<ele>113.500000</ele>
<time>2013-05-05T06:53:12Z</time>
</trkpt>
<trkpt lat="50.557385" lon="5.280695">
<ele>113.200000</ele>
<time>2013-05-05T06:53:13Z</time>
</trkpt>
<trkpt lat="50.557222" lon="5.280748">
<ele>112.700000</ele>
<time>2013-05-05T06:53:14Z</time>
</trkpt>
<trkpt lat="50.557063" lon="5.280825">
<ele>112.100000</ele>
<time>2013-05-05T06:53:15Z</time>
</trkpt>
<trkpt lat="50.556911" lon="5.280924">
<ele>111.400000</ele>
<time>2013-05-05T06:53:16Z</time>
</trkpt>
<trkpt lat="50.556762" lon="5.281039">
<ele>111.200000</ele>
<time>2013-05-05T06:53:17Z</time>
</trkpt>
<trkpt lat="50.556613" lon="5.281166">
<ele>111.100000</ele>
<time>2013-05-05T06:53:18Z</time>
</trkpt>
<trkpt lat="50.556459" lon="5.281317">
<ele>111.400000</ele>
<time>2013-05-05T06:53:19Z</time>
</trkpt>
<trkpt lat="50.556320" lon="5.281484">
<ele>112.000000</ele>
<time>2013-05-05T06:53:20Z</time>
</trkpt>
<trkpt lat="50.556189" lon="5.281664">
<ele>112.600000</ele>
<time>2013-05-05T06:53:21Z</time>
</trkpt>
<trkpt lat="50.556071" lon="5.281849">
<ele>113.400000</ele>
<time>2013-05-05T06:53:22Z</time>
</trkpt>
<trkpt lat="50.555948" lon="5.282044">
<ele>114.400000</ele>
<time>2013-05-05T06:53:23Z</time>
</trkpt>
<trkpt lat="50.555824" lon="5.282236">
<ele>115.400000</ele>
<time>2013-05-05T06:53:24Z</time>
</trkpt>
<trkpt lat="50.555698" lon="5.282426">
<ele>116.300000</ele>
<time>2013-05-05T06:53:25Z</time>
</trkpt>
<trkpt lat="50.555567" lon="5.282607">
<ele>117.300000</ele>
<time>2013-05-05T06:53:26Z</time>
</trkpt>
<trkpt lat="50.555433" lon="5.282780">
<ele>118.200000</ele>
<time>2013-05-05T06:53:27Z</time>
</trkpt>


Partager le fichier


Télécharger A_20130505_084920.gpx


Télécharger A_20130505_084920.gpx